4NK4 weather

Woodford Airfield
Fabius, New York, United States

Public forecast

Using degrees Fahrenheit for public forecast. Weather courtesy of forecast.io.

METAR (pilot weather report)

Closest report is Cortland County Chase Field, 16.4 nm (30.3 km) SSW. Retrieved 2019/07/18 23:35 UTC (0 seconds ago):

KN03 182335Z AUTO 00000KT 10SM CLR 26/20 A2991 RMK AO2

TAF (pilot weather forecast)

Closest forecast is Syracuse Hancock International Airport, 17.4 nm (32.3 km) NNW. Retrieved 2019/07/18 18:36 UTC (5 hours ago):

TAF KSYR 181733Z 1818/1918 VRB03KT P6SM SCT050 FM190000 VRB03KT P6SM SCT250 FM191200 20005KT P6SM BKN100 FM191700 25008KT P6SM BKN050